Kokuryumaru — JL5701 — position and weather

sailwx.info

Track history (hours):
 
Tides and Currents Weather Stations Pressure Air Temp Water Temp Dewpoint Dewpoint Depression Visibility Wind Speed Wind Dir Waves Ship Positions

Kokuryumaru

Last reported at 2018-Feb-19 07:59 UTC. Time now 2018-Feb-19 08:08 UTC.
Position N 35°03' E 136°53'.

Length 109 m; draft 5 m.

Type: Cargo ship. MMSI: 431500862.

Date/timePositionNaut miles runAvg speedWind from/ knotsBaromVisibWave heightAir tempDewpointWater temp
2018-Feb-19 07:59N 35°03' E 136°53'0 0.0
2018-Feb-19 07:29N 35°03' E 136°53'0 0.0
2018-Feb-19 06:59N 35°03' E 136°53'0 0.0
2018-Feb-19 06:29N 35°03' E 136°53'0 0.0
2018-Feb-19 05:59N 35°03' E 136°53'0 0.0
2018-Feb-19 05:29N 35°03' E 136°53'0 0.0
2018-Feb-19 04:59N 35°03' E 136°53'0 0.0
2018-Feb-19 04:29N 35°03' E 136°53'0 0.0
2018-Feb-19 03:59N 35°03' E 136°53'0 0.5
2018-Feb-19 03:30N 35°03' E 136°53'5 9.3
2018-Feb-19 03:00N 34°59' E 136°49'2 3.9
2018-Feb-19 02:30N 34°59' E 136°47'0 0.0
2018-Feb-19 02:00N 34°59' E 136°47'0 0.0
2018-Feb-19 01:30N 34°59' E 136°47'0 0.0
2018-Feb-19 01:00N 34°59' E 136°47'0 0.0
2018-Feb-19 00:30N 34°59' E 136°47'0 0.0
2018-Feb-19 00:00N 34°59' E 136°47'0 0.0
2018-Feb-18 23:30N 34°59' E 136°47'0 0.0
2018-Feb-18 23:00N 34°59' E 136°47'0 0.1
2018-Feb-18 22:30N 34°59' E 136°47'0 0.0
2018-Feb-18 22:00N 34°59' E 136°47'0 0.0
2018-Feb-18 21:30N 34°59' E 136°47'0 0.0
2018-Feb-18 21:00N 34°59' E 136°47'0 0.0
2018-Feb-18 20:30N 34°59' E 136°47'0 0.2
2018-Feb-18 20:00N 34°59' E 136°47'611.5
2018-Feb-18 19:30N 34°53' E 136°47'714.3
2018-Feb-18 19:00N 34°46' E 136°48'714.1
2018-Feb-18 18:30N 34°40' E 136°54'10310.2
2018-Feb-18 08:20N 33°45' E 135°08'515.0
2018-Feb-18 08:00N 33°48' E 135°04'715.0
2018-Feb-18 07:30N 33°54' E 134°58'714.7
2018-Feb-18 07:00N 33°60' E 134°53'714.8
2018-Feb-18 06:30N 34°05' E 134°47'915.7
2018-Feb-18 05:54N 34°13' E 134°40'614.7
2018-Feb-18 05:30N 34°17' E 134°35'714.8
2018-Feb-18 05:00N 34°19' E 134°26'814.9
2018-Feb-18 04:30N 34°23' E 134°18'13 0.5
2018-Feb-17 00:33N 34°27' E 134°04'516.0
2018-Feb-17 00:15N 34°26' E 134°09'516.5
2018-Feb-16 23:57N 34°24' E 134°15'715.5
2018-Feb-16 23:30N 34°22' E 134°23'815.3
2018-Feb-16 23:00N 34°19' E 134°31'815.4
2018-Feb-16 22:29N 34°14' E 134°39'816.2
2018-Feb-16 22:00N 34°08' E 134°45'815.6
2018-Feb-16 21:30N 34°02' E 134°51'815.9
2018-Feb-16 21:00N 33°56' E 134°57'816.2
2018-Feb-16 20:30N 33°50' E 135°03'2516.1
2018-Feb-16 18:57N 33°31' E 135°24'10114.4
2018-Feb-16 11:59N 34°30' E 137°02'714.1
2018-Feb-16 11:30N 34°36' E 136°57'816.5
2018-Feb-16 11:00N 34°41' E 136°49'816.5
2018-Feb-16 10:30N 34°49' E 136°46'815.9
2018-Feb-16 10:00N 34°57' E 136°47'714.5
2018-Feb-16 09:30N 35°03' E 136°52'1 1.8
2018-Feb-16 09:00N 35°03' E 136°53'0 0.0
2018-Feb-16 08:30N 35°03' E 136°53'0 0.0
2018-Feb-16 08:00N 35°03' E 136°53'0 0.0
2018-Feb-16 07:30N 35°03' E 136°53'0 0.0
2018-Feb-16 07:00N 35°03' E 136°53'0 0.0
2018-Feb-16 06:30N 35°03' E 136°53'0 0.0
2018-Feb-16 06:00N 35°03' E 136°53'0 0.0
2018-Feb-16 05:30N 35°03' E 136°53'0 0.0
2018-Feb-16 05:00N 35°03' E 136°53'0 0.0
2018-Feb-16 04:30N 35°03' E 136°53'0 0.0
2018-Feb-16 04:00N 35°03' E 136°53'0 0.0
2018-Feb-16 03:30N 35°03' E 136°53'0 0.0
2018-Feb-16 03:00N 35°03' E 136°53'0 0.0
2018-Feb-16 02:30N 35°03' E 136°53'0 0.0
2018-Feb-16 02:00N 35°03' E 136°53'0 0.0
2018-Feb-16 01:30N 35°03' E 136°53'2 4.5
2018-Feb-16 01:00N 35°02' E 136°51'510.6
2018-Feb-16 00:30N 34°58' E 136°47'0 0.0
2018-Feb-15 23:59N 34°58' E 136°47'0 0.0
2018-Feb-15 23:29N 34°58' E 136°47'0 0.0
2018-Feb-15 22:59N 34°58' E 136°47'0 0.1
2018-Feb-15 22:29N 34°58' E 136°47'0 0.0
2018-Feb-15 21:59N 34°58' E 136°47'0 0.0
2018-Feb-15 21:29N 34°58' E 136°47'0 0.0
2018-Feb-15 20:59N 34°58' E 136°47'0 0.0
2018-Feb-15 20:29N 34°58' E 136°47'0 0.0
2018-Feb-15 19:59N 34°58' E 136°47'3 5.9
2018-Feb-15 19:30N 34°55' E 136°47'714.2
2018-Feb-15 19:01N 34°48' E 136°48'714.2
2018-Feb-15 18:31N 34°42' E 136°52'914.7
2018-Feb-15 17:53N 34°35' E 136°59'10410.5
2018-Feb-15 07:59N 33°45' E 135°08'714.7
2018-Feb-15 07:30N 33°50' E 135°03'714.6
2018-Feb-15 07:00N 33°56' E 134°57'914.6
2018-Feb-15 06:24N 34°03' E 134°50'615.0
2018-Feb-15 05:59N 34°07' E 134°45'715.7
2018-Feb-15 05:30N 34°13' E 134°39'612.8
2018-Feb-15 05:01N 34°17' E 134°33'714.8
2018-Feb-15 04:30N 34°20' E 134°25'815.1
2018-Feb-15 03:58N 34°23' E 134°16'6 0.2
2018-Feb-13 20:45N 34°26' E 134°10'417.5
2018-Feb-13 20:30N 34°24' E 134°15'816.8
2018-Feb-13 20:00N 34°21' E 134°24'816.4
2018-Feb-13 19:31N 34°18' E 134°33'816.2
2018-Feb-13 19:01N 34°13' E 134°40'816.5
2018-Feb-13 18:31N 34°07' E 134°47'816.0
2018-Feb-13 18:00N 34°01' E 134°54'815.6
2018-Feb-13 17:30N 33°54' E 134°59'815.6
2018-Feb-13 17:00N 33°48' E 135°04'8412.7
2018-Feb-13 10:24N 34°05' E 136°43'3014.5
2018-Feb-13 08:21N 34°30' E 137°02'613.6
2018-Feb-13 07:55N 34°35' E 136°58'716.2
2018-Feb-13 07:30N 34°40' E 136°51'816.1
2018-Feb-13 07:01N 34°46' E 136°46'816.2
2018-Feb-13 06:31N 34°54' E 136°46'815.6
2018-Feb-13 06:01N 35°01' E 136°50'3 6.9
2018-Feb-13 05:30N 35°04' E 136°53'0 0.0
2018-Feb-13 05:01N 35°04' E 136°53'0 0.0
2018-Feb-13 04:28N 35°04' E 136°53'0 0.0
2018-Feb-13 03:58N 35°04' E 136°53'0 0.0
2018-Feb-13 03:31N 35°04' E 136°53'0 0.0
2018-Feb-13 02:58N 35°04' E 136°53'0 0.0
2018-Feb-13 02:31N 35°04' E 136°53'0 0.0
2018-Feb-13 01:58N 35°04' E 136°53'0 0.0
2018-Feb-13 01:28N 35°04' E 136°53'0 0.0
2018-Feb-13 01:01N 35°04' E 136°53'0 0.0
2018-Feb-13 00:28N 35°04' E 136°53'0 0.0
2018-Feb-13 00:01N 35°04' E 136°53'0 0.0
2018-Feb-12 23:31N 35°04' E 136°53'0 0.0
2018-Feb-12 23:01N 35°04' E 136°53'0 0.0
2018-Feb-12 22:30N 35°04' E 136°53'0 0.0
2018-Feb-12 22:00N 35°04' E 136°53'0 0.0
2018-Feb-12 21:30N 35°04' E 136°53'0 0.0
2018-Feb-12 21:00N 35°04' E 136°53'0 0.0
2018-Feb-12 20:30N 35°04' E 136°53'0 0.0
2018-Feb-12 20:00N 35°04' E 136°53'0 0.0
2018-Feb-12 19:30N 35°04' E 136°53'0 0.0
2018-Feb-12 19:00N 35°04' E 136°53'0 0.0
2018-Feb-12 18:30N 35°04' E 136°53'0 0.0
2018-Feb-12 18:00N 35°04' E 136°53'0 0.0
2018-Feb-12 17:30N 35°04' E 136°53'0 0.0
2018-Feb-12 17:00N 35°04' E 136°53'0 0.0
2018-Feb-12 16:31N 35°04' E 136°53'0 0.0
2018-Feb-12 16:01N 35°04' E 136°53'0 0.0
2018-Feb-12 15:30N 35°04' E 136°53'0 0.0
2018-Feb-12 15:00N 35°04' E 136°53'0 0.0
2018-Feb-12 14:31N 35°04' E 136°53'0 0.0
2018-Feb-12 14:00N 35°04' E 136°53'0 0.0
2018-Feb-12 13:31N 35°04' E 136°53'0 0.0
2018-Feb-12 12:59N 35°04' E 136°53'0 0.0
2018-Feb-12 12:30N 35°04' E 136°53'0 0.0
2018-Feb-12 12:01N 35°04' E 136°53'0 0.0
2018-Feb-12 11:30N 35°04' E 136°53'0 0.0
2018-Feb-12 11:01N 35°04' E 136°53'0 0.0
2018-Feb-12 10:30N 35°04' E 136°53'0 0.0
2018-Feb-12 10:00N 35°04' E 136°53'0 0.0
2018-Feb-12 09:30N 35°04' E 136°53'0 0.0
2018-Feb-12 09:00N 35°04' E 136°53'0 0.0
2018-Feb-12 08:30N 35°04' E 136°53'0 0.0
2018-Feb-12 08:00N 35°04' E 136°53'0 0.0
2018-Feb-12 07:30N 35°04' E 136°53'0 0.0
2018-Feb-12 07:00N 35°04' E 136°53'0 0.0
2018-Feb-12 06:30N 35°04' E 136°53'2 4.9
2018-Feb-12 06:00N 35°02' E 136°51'511.0
2018-Feb-12 05:31N 34°58' E 136°47'0 0.1
2018-Feb-12 05:00N 34°58' E 136°47'0 0.1
2018-Feb-12 04:30N 34°58' E 136°47'611.2
2018-Feb-12 04:00N 34°52' E 136°47'713.9
2018-Feb-12 03:30N 34°45' E 136°49'713.3
2018-Feb-12 03:00N 34°39' E 136°53'1011.0
2018-Feb-12 02:03N 34°33' E 137°03'213.4
2018-Feb-12 01:55N 34°33' E 137°05'613.1
2018-Feb-12 01:29N 34°33' E 137°12'713.3
2018-Feb-12 01:00N 34°33' E 137°20'2013.4
2018-Feb-11 23:29N 34°32' E 137°44'812.5
2018-Feb-11 22:49N 34°32' E 137°54'412.4
2018-Feb-11 22:27N 34°32' E 137°60'812.4
2018-Feb-11 21:48N 34°31' E 138°10'411.9
2018-Feb-11 21:27N 34°31' E 138°15'612.2
2018-Feb-11 21:00N 34°31' E 138°21'713.1
2018-Feb-11 20:27N 34°31' E 138°30'712.9
2018-Feb-11 19:56N 34°31' E 138°38'612.1
2018-Feb-11 19:28N 34°32' E 138°45'511.3
2018-Feb-11 19:00N 34°32' E 138°51'5 9.9
2018-Feb-11 18:30N 34°33' E 138°57'610.7
2018-Feb-11 17:55N 34°37' E 139°03'511.1
2018-Feb-11 17:30N 34°40' E 139°07'611.4
2018-Feb-11 16:59N 34°44' E 139°12'611.9
2018-Feb-11 16:30N 34°48' E 139°17'611.7
2018-Feb-11 16:00N 34°52' E 139°23'612.4
2018-Feb-11 15:29N 34°56' E 139°29'613.3
2018-Feb-11 15:01N 35°00' E 139°34'714.2
2018-Feb-11 14:30N 35°05' E 139°41'714.8
2018-Feb-11 14:00N 35°12' E 139°45'611.6
2018-Feb-11 13:31N 35°17' E 139°45'611.6
2018-Feb-11 13:01N 35°23' E 139°42'5 9.3
2018-Feb-11 12:30N 35°27' E 139°43'1 1.1
2018-Feb-11 12:00N 35°28' E 139°43'0 0.0
2018-Feb-11 11:29N 35°28' E 139°43'0 0.1
2018-Feb-11 10:59N 35°28' E 139°43'0 0.1
2018-Feb-11 10:29N 35°28' E 139°43'0 0.1
2018-Feb-11 09:59N 35°28' E 139°43'0 0.1
2018-Feb-11 09:29N 35°28' E 139°43'0 0.1
2018-Feb-11 08:59N 35°28' E 139°43'0 0.0
2018-Feb-11 08:29N 35°28' E 139°43'0 0.0
2018-Feb-11 07:59N 35°28' E 139°43'0 0.0
2018-Feb-11 07:26N 35°28' E 139°43'0 0.0
2018-Feb-11 06:59N 35°28' E 139°43'0 0.1
2018-Feb-11 06:29N 35°28' E 139°43'0 0.1
2018-Feb-11 05:59N 35°28' E 139°43'0 0.2
2018-Feb-11 05:30N 35°28' E 139°43'3 5.7
2018-Feb-11 05:00N 35°27' E 139°46'510.0
2018-Feb-11 04:30N 35°30' E 139°51'510.6
2018-Feb-11 04:00N 35°34' E 139°55'5 9.7
2018-Feb-11 03:28N 35°39' E 139°58'2 3.9
2018-Feb-11 02:56N 35°40' E 139°57'0 0.0
2018-Feb-11 02:30N 35°40' E 139°57'0 0.0
2018-Feb-11 01:58N 35°40' E 139°57'0 0.0
2018-Feb-11 01:25N 35°40' E 139°57'0 0.0
2018-Feb-11 00:01N 35°40' E 139°57'0 0.0
2018-Feb-10 23:46N 35°40' E 139°57'0 0.0
2018-Feb-10 23:30N 35°40' E 139°57'0 0.0
2018-Feb-10 22:59N 35°40' E 139°57'0 0.0
2018-Feb-10 22:27N 35°40' E 139°57'0 0.0
2018-Feb-10 22:00N 35°40' E 139°57'2 2.8
2018-Feb-10 21:20N 35°39' E 139°58'3 8.1
2018-Feb-10 21:00N 35°36' E 139°59'1 2.1
2018-Feb-10 20:29N 35°35' E 139°58'0 0.0
2018-Feb-10 19:59N 35°35' E 139°58'0 0.0
2018-Feb-10 19:29N 35°35' E 139°58'0 0.0
2018-Feb-10 18:59N 35°35' E 139°58'0 0.1
2018-Feb-10 18:30N 35°35' E 139°58'612.3
2018-Feb-10 18:00N 35°31' E 139°54'714.8
2018-Feb-10 17:31N 35°25' E 139°48'612.7
2018-Feb-10 17:01N 35°20' E 139°44'612.2
2018-Feb-10 16:31N 35°14' E 139°47'714.4
2018-Feb-10 16:00N 35°07' E 139°44'715.1
2018-Feb-10 15:30N 35°01' E 139°38'1316.0
2018-Feb-10 14:41N 34°53' E 139°25'417.3
2018-Feb-10 14:29N 34°51' E 139°22'1517.0
2018-Feb-10 13:35N 34°41' E 139°08'316.0
2018-Feb-10 13:23N 34°39' E 139°05'715.5
2018-Feb-10 12:56N 34°34' E 138°59'1415.7
2018-Feb-10 12:03N 34°31' E 138°43'215.1
2018-Feb-10 11:56N 34°30' E 138°40'18413.2
2018-Feb-09 22:00N 33°50' E 135°03'1514.6
2018-Feb-09 21:00N 34°02' E 134°52'2613.2
2018-Feb-09 19:01N 34°19' E 134°28'714.7
2018-Feb-09 18:30N 34°22' E 134°20'  
Track history (hours):
 
Tides and Currents Weather Stations Pressure Air Temp Water Temp Dewpoint Dewpoint Depression Visibility Wind Speed Wind Dir Waves Ship Positions

Kokuryumaru

Last reported at 2018-Feb-19 07:59 UTC. Time now 2018-Feb-19 08:08 UTC.
Position N 35°03' E 136°53'.

Length 109 m; draft 5 m.

Type: Cargo ship. MMSI: 431500862.

Date/timePositionNaut miles runAvg speedWind from/ knotsBaromVisibWave heightAir tempDewpointWater temp
2018-Feb-19 07:59N 35°03' E 136°53'0 0.0
2018-Feb-19 07:29N 35°03' E 136°53'0 0.0
2018-Feb-19 06:59N 35°03' E 136°53'0 0.0
2018-Feb-19 06:29N 35°03' E 136°53'0 0.0
2018-Feb-19 05:59N 35°03' E 136°53'0 0.0
2018-Feb-19 05:29N 35°03' E 136°53'0 0.0
2018-Feb-19 04:59N 35°03' E 136°53'0 0.0
2018-Feb-19 04:29N 35°03' E 136°53'0 0.0
2018-Feb-19 03:59N 35°03' E 136°53'0 0.5
2018-Feb-19 03:30N 35°03' E 136°53'5 9.3
2018-Feb-19 03:00N 34°59' E 136°49'2 3.9
2018-Feb-19 02:30N 34°59' E 136°47'0 0.0
2018-Feb-19 02:00N 34°59' E 136°47'0 0.0
2018-Feb-19 01:30N 34°59' E 136°47'0 0.0
2018-Feb-19 01:00N 34°59' E 136°47'0 0.0
2018-Feb-19 00:30N 34°59' E 136°47'0 0.0
2018-Feb-19 00:00N 34°59' E 136°47'0 0.0
2018-Feb-18 23:30N 34°59' E 136°47'0 0.0
2018-Feb-18 23:00N 34°59' E 136°47'0 0.1
2018-Feb-18 22:30N 34°59' E 136°47'0 0.0
2018-Feb-18 22:00N 34°59' E 136°47'0 0.0
2018-Feb-18 21:30N 34°59' E 136°47'0 0.0
2018-Feb-18 21:00N 34°59' E 136°47'0 0.0
2018-Feb-18 20:30N 34°59' E 136°47'0 0.2
2018-Feb-18 20:00N 34°59' E 136°47'611.5
2018-Feb-18 19:30N 34°53' E 136°47'714.3
2018-Feb-18 19:00N 34°46' E 136°48'714.1
2018-Feb-18 18:30N 34°40' E 136°54'10310.2
2018-Feb-18 08:20N 33°45' E 135°08'515.0
2018-Feb-18 08:00N 33°48' E 135°04'715.0
2018-Feb-18 07:30N 33°54' E 134°58'714.7
2018-Feb-18 07:00N 33°60' E 134°53'714.8
2018-Feb-18 06:30N 34°05' E 134°47'915.7
2018-Feb-18 05:54N 34°13' E 134°40'614.7
2018-Feb-18 05:30N 34°17' E 134°35'714.8
2018-Feb-18 05:00N 34°19' E 134°26'814.9
2018-Feb-18 04:30N 34°23' E 134°18'13 0.5
2018-Feb-17 00:33N 34°27' E 134°04'516.0
2018-Feb-17 00:15N 34°26' E 134°09'516.5
2018-Feb-16 23:57N 34°24' E 134°15'715.5
2018-Feb-16 23:30N 34°22' E 134°23'815.3
2018-Feb-16 23:00N 34°19' E 134°31'815.4
2018-Feb-16 22:29N 34°14' E 134°39'816.2
2018-Feb-16 22:00N 34°08' E 134°45'815.6
2018-Feb-16 21:30N 34°02' E 134°51'815.9
2018-Feb-16 21:00N 33°56' E 134°57'816.2
2018-Feb-16 20:30N 33°50' E 135°03'2516.1
2018-Feb-16 18:57N 33°31' E 135°24'10114.4
2018-Feb-16 11:59N 34°30' E 137°02'714.1
2018-Feb-16 11:30N 34°36' E 136°57'816.5
2018-Feb-16 11:00N 34°41' E 136°49'816.5
2018-Feb-16 10:30N 34°49' E 136°46'815.9
2018-Feb-16 10:00N 34°57' E 136°47'714.5
2018-Feb-16 09:30N 35°03' E 136°52'1 1.8
2018-Feb-16 09:00N 35°03' E 136°53'0 0.0
2018-Feb-16 08:30N 35°03' E 136°53'0 0.0
2018-Feb-16 08:00N 35°03' E 136°53'0 0.0
2018-Feb-16 07:30N 35°03' E 136°53'0 0.0
2018-Feb-16 07:00N 35°03' E 136°53'0 0.0
2018-Feb-16 06:30N 35°03' E 136°53'0 0.0
2018-Feb-16 06:00N 35°03' E 136°53'0 0.0
2018-Feb-16 05:30N 35°03' E 136°53'0 0.0
2018-Feb-16 05:00N 35°03' E 136°53'0 0.0
2018-Feb-16 04:30N 35°03' E 136°53'0 0.0
2018-Feb-16 04:00N 35°03' E 136°53'0 0.0
2018-Feb-16 03:30N 35°03' E 136°53'0 0.0
2018-Feb-16 03:00N 35°03' E 136°53'0 0.0
2018-Feb-16 02:30N 35°03' E 136°53'0 0.0
2018-Feb-16 02:00N 35°03' E 136°53'0 0.0
2018-Feb-16 01:30N 35°03' E 136°53'2 4.5
2018-Feb-16 01:00N 35°02' E 136°51'510.6
2018-Feb-16 00:30N 34°58' E 136°47'0 0.0
2018-Feb-15 23:59N 34°58' E 136°47'0 0.0
2018-Feb-15 23:29N 34°58' E 136°47'0 0.0
2018-Feb-15 22:59N 34°58' E 136°47'0 0.1
2018-Feb-15 22:29N 34°58' E 136°47'0 0.0
2018-Feb-15 21:59N 34°58' E 136°47'0 0.0
2018-Feb-15 21:29N 34°58' E 136°47'0 0.0
2018-Feb-15 20:59N 34°58' E 136°47'0 0.0
2018-Feb-15 20:29N 34°58' E 136°47'0 0.0
2018-Feb-15 19:59N 34°58' E 136°47'3 5.9
2018-Feb-15 19:30N 34°55' E 136°47'714.2
2018-Feb-15 19:01N 34°48' E 136°48'714.2
2018-Feb-15 18:31N 34°42' E 136°52'914.7
2018-Feb-15 17:53N 34°35' E 136°59'10410.5
2018-Feb-15 07:59N 33°45' E 135°08'714.7
2018-Feb-15 07:30N 33°50' E 135°03'714.6
2018-Feb-15 07:00N 33°56' E 134°57'914.6
2018-Feb-15 06:24N 34°03' E 134°50'615.0
2018-Feb-15 05:59N 34°07' E 134°45'715.7
2018-Feb-15 05:30N 34°13' E 134°39'612.8
2018-Feb-15 05:01N 34°17' E 134°33'714.8
2018-Feb-15 04:30N 34°20' E 134°25'815.1
2018-Feb-15 03:58N 34°23' E 134°16'6 0.2
2018-Feb-13 20:45N 34°26' E 134°10'417.5
2018-Feb-13 20:30N 34°24' E 134°15'816.8
2018-Feb-13 20:00N 34°21' E 134°24'816.4
2018-Feb-13 19:31N 34°18' E 134°33'816.2
2018-Feb-13 19:01N 34°13' E 134°40'816.5
2018-Feb-13 18:31N 34°07' E 134°47'816.0
2018-Feb-13 18:00N 34°01' E 134°54'815.6
2018-Feb-13 17:30N 33°54' E 134°59'815.6
2018-Feb-13 17:00N 33°48' E 135°04'8412.7
2018-Feb-13 10:24N 34°05' E 136°43'3014.5
2018-Feb-13 08:21N 34°30' E 137°02'613.6
2018-Feb-13 07:55N 34°35' E 136°58'716.2
2018-Feb-13 07:30N 34°40' E 136°51'816.1
2018-Feb-13 07:01N 34°46' E 136°46'816.2
2018-Feb-13 06:31N 34°54' E 136°46'815.6
2018-Feb-13 06:01N 35°01' E 136°50'3 6.9
2018-Feb-13 05:30N 35°04' E 136°53'0 0.0
2018-Feb-13 05:01N 35°04' E 136°53'0 0.0
2018-Feb-13 04:28N 35°04' E 136°53'0 0.0
2018-Feb-13 03:58N 35°04' E 136°53'0 0.0
2018-Feb-13 03:31N 35°04' E 136°53'0 0.0
2018-Feb-13 02:58N 35°04' E 136°53'0 0.0
2018-Feb-13 02:31N 35°04' E 136°53'0 0.0
2018-Feb-13 01:58N 35°04' E 136°53'0 0.0
2018-Feb-13 01:28N 35°04' E 136°53'0 0.0
2018-Feb-13 01:01N 35°04' E 136°53'0 0.0
2018-Feb-13 00:28N 35°04' E 136°53'0 0.0
2018-Feb-13 00:01N 35°04' E 136°53'0 0.0
2018-Feb-12 23:31N 35°04' E 136°53'0 0.0
2018-Feb-12 23:01N 35°04' E 136°53'0 0.0
2018-Feb-12 22:30N 35°04' E 136°53'0 0.0
2018-Feb-12 22:00N 35°04' E 136°53'0 0.0
2018-Feb-12 21:30N 35°04' E 136°53'0 0.0
2018-Feb-12 21:00N 35°04' E 136°53'0 0.0
2018-Feb-12 20:30N 35°04' E 136°53'0 0.0
2018-Feb-12 20:00N 35°04' E 136°53'0 0.0
2018-Feb-12 19:30N 35°04' E 136°53'0 0.0
2018-Feb-12 19:00N 35°04' E 136°53'0 0.0
2018-Feb-12 18:30N 35°04' E 136°53'0 0.0
2018-Feb-12 18:00N 35°04' E 136°53'0 0.0
2018-Feb-12 17:30N 35°04' E 136°53'0 0.0
2018-Feb-12 17:00N 35°04' E 136°53'0 0.0
2018-Feb-12 16:31N 35°04' E 136°53'0 0.0
2018-Feb-12 16:01N 35°04' E 136°53'0 0.0
2018-Feb-12 15:30N 35°04' E 136°53'0 0.0
2018-Feb-12 15:00N 35°04' E 136°53'0 0.0
2018-Feb-12 14:31N 35°04' E 136°53'0 0.0
2018-Feb-12 14:00N 35°04' E 136°53'0 0.0
2018-Feb-12 13:31N 35°04' E 136°53'0 0.0
2018-Feb-12 12:59N 35°04' E 136°53'0 0.0
2018-Feb-12 12:30N 35°04' E 136°53'0 0.0
2018-Feb-12 12:01N 35°04' E 136°53'0 0.0
2018-Feb-12 11:30N 35°04' E 136°53'0 0.0
2018-Feb-12 11:01N 35°04' E 136°53'0 0.0
2018-Feb-12 10:30N 35°04' E 136°53'0 0.0
2018-Feb-12 10:00N 35°04' E 136°53'0 0.0
2018-Feb-12 09:30N 35°04' E 136°53'0 0.0
2018-Feb-12 09:00N 35°04' E 136°53'0 0.0
2018-Feb-12 08:30N 35°04' E 136°53'0 0.0
2018-Feb-12 08:00N 35°04' E 136°53'0 0.0
2018-Feb-12 07:30N 35°04' E 136°53'0 0.0
2018-Feb-12 07:00N 35°04' E 136°53'0 0.0
2018-Feb-12 06:30N 35°04' E 136°53'2 4.9
2018-Feb-12 06:00N 35°02' E 136°51'511.0
2018-Feb-12 05:31N 34°58' E 136°47'0 0.1
2018-Feb-12 05:00N 34°58' E 136°47'0 0.1
2018-Feb-12 04:30N 34°58' E 136°47'611.2
2018-Feb-12 04:00N 34°52' E 136°47'713.9
2018-Feb-12 03:30N 34°45' E 136°49'713.3
2018-Feb-12 03:00N 34°39' E 136°53'1011.0
2018-Feb-12 02:03N 34°33' E 137°03'213.4
2018-Feb-12 01:55N 34°33' E 137°05'613.1
2018-Feb-12 01:29N 34°33' E 137°12'713.3
2018-Feb-12 01:00N 34°33' E 137°20'2013.4
2018-Feb-11 23:29N 34°32' E 137°44'812.5
2018-Feb-11 22:49N 34°32' E 137°54'412.4
2018-Feb-11 22:27N 34°32' E 137°60'812.4
2018-Feb-11 21:48N 34°31' E 138°10'411.9
2018-Feb-11 21:27N 34°31' E 138°15'612.2
2018-Feb-11 21:00N 34°31' E 138°21'713.1
2018-Feb-11 20:27N 34°31' E 138°30'712.9
2018-Feb-11 19:56N 34°31' E 138°38'612.1
2018-Feb-11 19:28N 34°32' E 138°45'511.3
2018-Feb-11 19:00N 34°32' E 138°51'5 9.9
2018-Feb-11 18:30N 34°33' E 138°57'610.7
2018-Feb-11 17:55N 34°37' E 139°03'511.1
2018-Feb-11 17:30N 34°40' E 139°07'611.4
2018-Feb-11 16:59N 34°44' E 139°12'611.9
2018-Feb-11 16:30N 34°48' E 139°17'611.7
2018-Feb-11 16:00N 34°52' E 139°23'612.4
2018-Feb-11 15:29N 34°56' E 139°29'613.3
2018-Feb-11 15:01N 35°00' E 139°34'714.2
2018-Feb-11 14:30N 35°05' E 139°41'714.8
2018-Feb-11 14:00N 35°12' E 139°45'611.6
2018-Feb-11 13:31N 35°17' E 139°45'611.6
2018-Feb-11 13:01N 35°23' E 139°42'5 9.3
2018-Feb-11 12:30N 35°27' E 139°43'1 1.1
2018-Feb-11 12:00N 35°28' E 139°43'0 0.0
2018-Feb-11 11:29N 35°28' E 139°43'0 0.1
2018-Feb-11 10:59N 35°28' E 139°43'0 0.1
2018-Feb-11 10:29N 35°28' E 139°43'0 0.1
2018-Feb-11 09:59N 35°28' E 139°43'0 0.1
2018-Feb-11 09:29N 35°28' E 139°43'0 0.1
2018-Feb-11 08:59N 35°28' E 139°43'0 0.0
2018-Feb-11 08:29N 35°28' E 139°43'0 0.0
2018-Feb-11 07:59N 35°28' E 139°43'0 0.0
2018-Feb-11 07:26N 35°28' E 139°43'0 0.0
2018-Feb-11 06:59N 35°28' E 139°43'0 0.1
2018-Feb-11 06:29N 35°28' E 139°43'0 0.1
2018-Feb-11 05:59N 35°28' E 139°43'0 0.2
2018-Feb-11 05:30N 35°28' E 139°43'3 5.7
2018-Feb-11 05:00N 35°27' E 139°46'510.0
2018-Feb-11 04:30N 35°30' E 139°51'510.6
2018-Feb-11 04:00N 35°34' E 139°55'5 9.7
2018-Feb-11 03:28N 35°39' E 139°58'2 3.9
2018-Feb-11 02:56N 35°40' E 139°57'0 0.0
2018-Feb-11 02:30N 35°40' E 139°57'0 0.0
2018-Feb-11 01:58N 35°40' E 139°57'0 0.0
2018-Feb-11 01:25N 35°40' E 139°57'0 0.0
2018-Feb-11 00:01N 35°40' E 139°57'0 0.0
2018-Feb-10 23:46N 35°40' E 139°57'0 0.0
2018-Feb-10 23:30N 35°40' E 139°57'0 0.0
2018-Feb-10 22:59N 35°40' E 139°57'0 0.0
2018-Feb-10 22:27N 35°40' E 139°57'0 0.0
2018-Feb-10 22:00N 35°40' E 139°57'2 2.8
2018-Feb-10 21:20N 35°39' E 139°58'3 8.1
2018-Feb-10 21:00N 35°36' E 139°59'1 2.1
2018-Feb-10 20:29N 35°35' E 139°58'0 0.0
2018-Feb-10 19:59N 35°35' E 139°58'0 0.0
2018-Feb-10 19:29N 35°35' E 139°58'0 0.0
2018-Feb-10 18:59N 35°35' E 139°58'0 0.1
2018-Feb-10 18:30N 35°35' E 139°58'612.3
2018-Feb-10 18:00N 35°31' E 139°54'714.8
2018-Feb-10 17:31N 35°25' E 139°48'612.7
2018-Feb-10 17:01N 35°20' E 139°44'612.2
2018-Feb-10 16:31N 35°14' E 139°47'714.4
2018-Feb-10 16:00N 35°07' E 139°44'715.1
2018-Feb-10 15:30N 35°01' E 139°38'1316.0
2018-Feb-10 14:41N 34°53' E 139°25'417.3
2018-Feb-10 14:29N 34°51' E 139°22'1517.0
2018-Feb-10 13:35N 34°41' E 139°08'316.0
2018-Feb-10 13:23N 34°39' E 139°05'715.5
2018-Feb-10 12:56N 34°34' E 138°59'1415.7
2018-Feb-10 12:03N 34°31' E 138°43'215.1
2018-Feb-10 11:56N 34°30' E 138°40'18413.2
2018-Feb-09 22:00N 33°50' E 135°03'1514.6
2018-Feb-09 21:00N 34°02' E 134°52'2613.2
2018-Feb-09 19:01N 34°19' E 134°28'714.7
2018-Feb-09 18:30N 34°22' E 134°20'  

Dump ship's entire track history